sensor_id;sensor_type;location;lat;lon;timestamp;P1;durP1;ratioP1;P2;durP2;ratioP2
8254;SDS011;4167;48.162;11.542;2022-07-29T00:00:43;61.07;;;23.47;;
8254;SDS011;4167;48.162;11.542;2022-07-29T00:03:10;148.03;;;28.20;;
8254;SDS011;4167;48.162;11.542;2022-07-29T00:05:37;70.25;;;23.80;;
8254;SDS011;4167;48.162;11.542;2022-07-29T00:08:04;109.40;;;25.60;;
8254;SDS011;4167;48.162;11.542;2022-07-29T00:10:30;68.73;;;23.47;;
8254;SDS011;4167;48.162;11.542;2022-07-29T00:12:58;96.40;;;25.27;;
8254;SDS011;4167;48.162;11.542;2022-07-29T00:15:25;74.00;;;23.50;;
8254;SDS011;4167;48.162;11.542;2022-07-29T00:17:51;66.57;;;23.03;;
8254;SDS011;4167;48.162;11.542;2022-07-29T00:20:18;89.67;;;23.93;;
8254;SDS011;4167;48.162;11.542;2022-07-29T00:22:45;102.67;;;25.53;;
8254;SDS011;4167;48.162;11.542;2022-07-29T00:25:11;90.77;;;25.57;;
8254;SDS011;4167;48.162;11.542;2022-07-29T00:27:38;55.77;;;23.27;;
8254;SDS011;4167;48.162;11.542;2022-07-29T00:30:07;97.73;;;25.13;;
8254;SDS011;4167;48.162;11.542;2022-07-29T00:32:34;82.50;;;24.63;;
8254;SDS011;4167;48.162;11.542;2022-07-29T00:35:00;75.73;;;24.50;;
8254;SDS011;4167;48.162;11.542;2022-07-29T00:37:44;67.43;;;23.77;;
8254;SDS011;4167;48.162;11.542;2022-07-29T00:40:11;99.30;;;26.10;;
8254;SDS011;4167;48.162;11.542;2022-07-29T00:42:41;90.97;;;24.77;;
8254;SDS011;4167;48.162;11.542;2022-07-29T00:45:10;52.67;;;22.97;;
8254;SDS011;4167;48.162;11.542;2022-07-29T00:47:37;105.80;;;26.47;;
8254;SDS011;4167;48.162;11.542;2022-07-29T00:50:04;57.27;;;23.23;;
8254;SDS011;4167;48.162;11.542;2022-07-29T00:52:32;104.00;;;25.50;;
8254;SDS011;4167;48.162;11.542;2022-07-29T00:54:59;57.53;;;22.97;;
8254;SDS011;4167;48.162;11.542;2022-07-29T00:57:25;84.67;;;24.70;;
8254;SDS011;4167;48.162;11.542;2022-07-29T00:59:52;53.10;;;22.73;;
8254;SDS011;4167;48.162;11.542;2022-07-29T01:02:20;104.57;;;25.43;;
8254;SDS011;4167;48.162;11.542;2022-07-29T01:04:47;75.10;;;24.20;;
8254;SDS011;4167;48.162;11.542;2022-07-29T01:07:13;73.00;;;23.93;;
8254;SDS011;4167;48.162;11.542;2022-07-29T01:09:40;69.50;;;23.77;;
8254;SDS011;4167;48.162;11.542;2022-07-29T01:12:08;81.60;;;24.07;;
8254;SDS011;4167;48.162;11.542;2022-07-29T01:14:35;68.37;;;23.70;;
8254;SDS011;4167;48.162;11.542;2022-07-29T01:17:05;56.93;;;22.97;;
8254;SDS011;4167;48.162;11.542;2022-07-29T01:19:44;59.97;;;23.57;;
8254;SDS011;4167;48.162;11.542;2022-07-29T01:22:18;106.47;;;25.03;;
8254;SDS011;4167;48.162;11.542;2022-07-29T01:24:59;60.57;;;23.57;;
8254;SDS011;4167;48.162;11.542;2022-07-29T01:27:35;95.60;;;25.07;;
8254;SDS011;4167;48.162;11.542;2022-07-29T01:30:08;116.37;;;26.10;;
8254;SDS011;4167;48.162;11.542;2022-07-29T01:32:36;74.70;;;23.43;;
8254;SDS011;4167;48.162;11.542;2022-07-29T01:35:05;76.13;;;23.93;;
8254;SDS011;4167;48.162;11.542;2022-07-29T01:37:36;89.77;;;24.30;;
8254;SDS011;4167;48.162;11.542;2022-07-29T01:40:07;75.77;;;24.10;;
8254;SDS011;4167;48.162;11.542;2022-07-29T01:42:38;79.03;;;23.93;;
8254;SDS011;4167;48.162;11.542;2022-07-29T01:45:10;57.67;;;23.07;;
8254;SDS011;4167;48.162;11.542;2022-07-29T01:47:42;95.40;;;24.07;;
8254;SDS011;4167;48.162;11.542;2022-07-29T01:50:11;60.57;;;23.37;;
8254;SDS011;4167;48.162;11.542;2022-07-29T01:52:39;48.77;;;22.43;;
8254;SDS011;4167;48.162;11.542;2022-07-29T01:55:11;68.20;;;24.00;;
8254;SDS011;4167;48.162;11.542;2022-07-29T01:57:39;57.80;;;22.20;;
8254;SDS011;4167;48.162;11.542;2022-07-29T02:00:07;41.53;;;22.63;;
8254;SDS011;4167;48.162;11.542;2022-07-29T02:02:36;72.97;;;24.17;;
8254;SDS011;4167;48.162;11.542;2022-07-29T02:05:04;67.73;;;23.60;;
8254;SDS011;4167;48.162;11.542;2022-07-29T02:07:32;70.53;;;23.03;;
8254;SDS011;4167;48.162;11.542;2022-07-29T02:10:00;102.93;;;25.47;;
8254;SDS011;4167;48.162;11.542;2022-07-29T02:12:28;122.03;;;26.07;;
8254;SDS011;4167;48.162;11.542;2022-07-29T02:14:55;60.07;;;22.77;;
8254;SDS011;4167;48.162;11.542;2022-07-29T02:17:31;92.10;;;24.57;;
8254;SDS011;4167;48.162;11.542;2022-07-29T02:20:00;66.23;;;23.07;;
8254;SDS011;4167;48.162;11.542;2022-07-29T02:22:30;100.37;;;25.30;;
8254;SDS011;4167;48.162;11.542;2022-07-29T02:24:57;116.67;;;26.27;;
8254;SDS011;4167;48.162;11.542;2022-07-29T02:27:24;55.47;;;22.23;;
8254;SDS011;4167;48.162;11.542;2022-07-29T02:29:52;79.23;;;24.13;;
8254;SDS011;4167;48.162;11.542;2022-07-29T02:32:20;120.13;;;25.80;;
8254;SDS011;4167;48.162;11.542;2022-07-29T02:34:49;53.37;;;22.80;;
8254;SDS011;4167;48.162;11.542;2022-07-29T02:37:16;68.83;;;23.00;;
8254;SDS011;4167;48.162;11.542;2022-07-29T02:39:44;101.50;;;25.50;;
8254;SDS011;4167;48.162;11.542;2022-07-29T02:42:11;129.57;;;26.47;;
8254;SDS011;4167;48.162;11.542;2022-07-29T02:44:39;60.87;;;23.37;;
8254;SDS011;4167;48.162;11.542;2022-07-29T02:47:07;58.10;;;22.93;;
8254;SDS011;4167;48.162;11.542;2022-07-29T02:49:38;79.83;;;24.17;;
8254;SDS011;4167;48.162;11.542;2022-07-29T02:52:11;53.23;;;23.33;;
8254;SDS011;4167;48.162;11.542;2022-07-29T02:54:42;53.50;;;22.77;;
8254;SDS011;4167;48.162;11.542;2022-07-29T02:57:14;54.13;;;22.80;;
8254;SDS011;4167;48.162;11.542;2022-07-29T02:59:45;68.97;;;23.60;;
8254;SDS011;4167;48.162;11.542;2022-07-29T03:02:14;152.77;;;27.93;;
8254;SDS011;4167;48.162;11.542;2022-07-29T03:04:42;60.57;;;22.77;;
8254;SDS011;4167;48.162;11.542;2022-07-29T03:07:10;61.57;;;22.80;;
8254;SDS011;4167;48.162;11.542;2022-07-29T03:09:38;54.07;;;22.17;;
8254;SDS011;4167;48.162;11.542;2022-07-29T03:12:05;59.70;;;23.40;;
8254;SDS011;4167;48.162;11.542;2022-07-29T03:14:31;80.07;;;24.03;;
8254;SDS011;4167;48.162;11.542;2022-07-29T03:16:58;69.87;;;23.40;;
8254;SDS011;4167;48.162;11.542;2022-07-29T03:19:25;166.20;;;28.07;;
8254;SDS011;4167;48.162;11.542;2022-07-29T03:21:52;69.30;;;23.40;;
8254;SDS011;4167;48.162;11.542;2022-07-29T03:24:31;64.43;;;23.23;;
8254;SDS011;4167;48.162;11.542;2022-07-29T03:26:58;89.07;;;24.63;;
8254;SDS011;4167;48.162;11.542;2022-07-29T03:29:25;76.73;;;23.77;;
8254;SDS011;4167;48.162;11.542;2022-07-29T03:31:52;97.60;;;24.93;;
8254;SDS011;4167;48.162;11.542;2022-07-29T03:34:19;77.73;;;23.73;;
8254;SDS011;4167;48.162;11.542;2022-07-29T03:36:46;76.70;;;23.80;;
8254;SDS011;4167;48.162;11.542;2022-07-29T03:39:13;96.87;;;24.30;;
8254;SDS011;4167;48.162;11.542;2022-07-29T03:41:43;172.83;;;28.57;;
8254;SDS011;4167;48.162;11.542;2022-07-29T03:44:10;65.23;;;23.13;;
8254;SDS011;4167;48.162;11.542;2022-07-29T03:46:37;92.27;;;24.10;;
8254;SDS011;4167;48.162;11.542;2022-07-29T03:49:05;67.37;;;23.30;;
8254;SDS011;4167;48.162;11.542;2022-07-29T03:51:33;65.80;;;22.87;;
8254;SDS011;4167;48.162;11.542;2022-07-29T03:54:00;81.17;;;23.80;;
8254;SDS011;4167;48.162;11.542;2022-07-29T03:56:26;70.47;;;23.17;;
8254;SDS011;4167;48.162;11.542;2022-07-29T03:58:55;113.77;;;24.77;;
8254;SDS011;4167;48.162;11.542;2022-07-29T04:01:22;133.60;;;26.77;;
8254;SDS011;4167;48.162;11.542;2022-07-29T04:03:48;54.00;;;22.80;;
8254;SDS011;4167;48.162;11.542;2022-07-29T04:06:16;65.63;;;23.57;;
8254;SDS011;4167;48.162;11.542;2022-07-29T04:08:42;79.03;;;23.60;;
8254;SDS011;4167;48.162;11.542;2022-07-29T04:11:09;56.93;;;22.97;;
8254;SDS011;4167;48.162;11.542;2022-07-29T04:13:35;67.70;;;23.10;;
8254;SDS011;4167;48.162;11.542;2022-07-29T04:16:04;57.60;;;23.07;;
8254;SDS011;4167;48.162;11.542;2022-07-29T04:18:30;198.07;;;29.57;;
8254;SDS011;4167;48.162;11.542;2022-07-29T04:20:57;105.43;;;24.73;;
8254;SDS011;4167;48.162;11.542;2022-07-29T04:23:25;165.07;;;27.73;;
8254;SDS011;4167;48.162;11.542;2022-07-29T04:25:52;117.20;;;25.50;;
8254;SDS011;4167;48.162;11.542;2022-07-29T04:28:18;88.17;;;23.97;;
8254;SDS011;4167;48.162;11.542;2022-07-29T04:30:45;92.73;;;24.80;;
8254;SDS011;4167;48.162;11.542;2022-07-29T04:33:13;67.10;;;23.23;;
8254;SDS011;4167;48.162;11.542;2022-07-29T04:35:40;50.90;;;22.73;;
8254;SDS011;4167;48.162;11.542;2022-07-29T04:38:06;55.00;;;23.37;;
8254;SDS011;4167;48.162;11.542;2022-07-29T04:40:33;57.40;;;23.35;;
8254;SDS011;4167;48.162;11.542;2022-07-29T04:42:59;85.57;;;25.35;;
8254;SDS011;4167;48.162;11.542;2022-07-29T04:45:26;69.75;;;24.45;;
8254;SDS011;4167;48.162;11.542;2022-07-29T04:47:53;84.00;;;25.77;;
8254;SDS011;4167;48.162;11.542;2022-07-29T04:50:21;53.90;;;23.50;;
8254;SDS011;4167;48.162;11.542;2022-07-29T04:52:47;51.15;;;23.42;;
8254;SDS011;4167;48.162;11.542;2022-07-29T04:55:14;53.83;;;24.10;;
8254;SDS011;4167;48.162;11.542;2022-07-29T04:57:40;84.28;;;25.98;;
8254;SDS011;4167;48.162;11.542;2022-07-29T05:00:07;84.53;;;25.88;;
8254;SDS011;4167;48.162;11.542;2022-07-29T05:02:35;83.78;;;26.05;;
8254;SDS011;4167;48.162;11.542;2022-07-29T05:05:01;64.57;;;25.48;;
8254;SDS011;4167;48.162;11.542;2022-07-29T05:07:29;91.38;;;26.60;;
8254;SDS011;4167;48.162;11.542;2022-07-29T05:09:56;84.65;;;26.00;;
8254;SDS011;4167;48.162;11.542;2022-07-29T05:12:22;112.53;;;28.13;;
8254;SDS011;4167;48.162;11.542;2022-07-29T05:14:49;62.60;;;24.58;;
8254;SDS011;4167;48.162;11.542;2022-07-29T05:17:15;81.38;;;25.23;;
8254;SDS011;4167;48.162;11.542;2022-07-29T05:19:42;83.05;;;25.17;;
8254;SDS011;4167;48.162;11.542;2022-07-29T05:22:08;90.75;;;25.80;;
8254;SDS011;4167;48.162;11.542;2022-07-29T05:24:36;96.25;;;26.48;;
8254;SDS011;4167;48.162;11.542;2022-07-29T05:27:03;68.72;;;24.30;;
8254;SDS011;4167;48.162;11.542;2022-07-29T05:29:30;70.88;;;25.17;;
8254;SDS011;4167;48.162;11.542;2022-07-29T05:31:56;93.63;;;27.27;;
8254;SDS011;4167;48.162;11.542;2022-07-29T05:34:23;98.68;;;26.60;;
8254;SDS011;4167;48.162;11.542;2022-07-29T05:36:50;78.10;;;25.38;;
8254;SDS011;4167;48.162;11.542;2022-07-29T05:39:16;105.13;;;28.42;;
8254;SDS011;4167;48.162;11.542;2022-07-29T05:41:44;62.65;;;24.17;;
8254;SDS011;4167;48.162;11.542;2022-07-29T05:44:11;94.05;;;26.02;;
8254;SDS011;4167;48.162;11.542;2022-07-29T05:46:38;96.00;;;25.77;;
8254;SDS011;4167;48.162;11.542;2022-07-29T05:49:04;70.63;;;24.23;;
8254;SDS011;4167;48.162;11.542;2022-07-29T05:51:31;67.57;;;24.35;;
8254;SDS011;4167;48.162;11.542;2022-07-29T05:53:58;74.30;;;24.38;;
8254;SDS011;4167;48.162;11.542;2022-07-29T05:56:24;87.43;;;26.35;;
8254;SDS011;4167;48.162;11.542;2022-07-29T05:58:52;85.60;;;26.17;;
8254;SDS011;4167;48.162;11.542;2022-07-29T06:01:19;103.47;;;26.95;;
8254;SDS011;4167;48.162;11.542;2022-07-29T06:03:45;70.65;;;25.20;;
8254;SDS011;4167;48.162;11.542;2022-07-29T06:06:12;68.05;;;25.30;;
8254;SDS011;4167;48.162;11.542;2022-07-29T06:08:38;78.53;;;25.08;;
8254;SDS011;4167;48.162;11.542;2022-07-29T06:11:05;88.28;;;25.67;;
8254;SDS011;4167;48.162;11.542;2022-07-29T06:13:33;72.72;;;25.17;;
8254;SDS011;4167;48.162;11.542;2022-07-29T06:16:01;73.85;;;24.40;;
8254;SDS011;4167;48.162;11.542;2022-07-29T06:18:27;129.45;;;29.00;;
8254;SDS011;4167;48.162;11.542;2022-07-29T06:20:54;62.85;;;23.88;;
8254;SDS011;4167;48.162;11.542;2022-07-29T06:23:20;168.00;;;31.13;;
8254;SDS011;4167;48.162;11.542;2022-07-29T06:25:47;280.30;;;38.15;;
8254;SDS011;4167;48.162;11.542;2022-07-29T06:28:14;142.55;;;28.80;;
8254;SDS011;4167;48.162;11.542;2022-07-29T06:30:40;73.70;;;24.08;;
8254;SDS011;4167;48.162;11.542;2022-07-29T06:33:08;197.02;;;32.83;;
8254;SDS011;4167;48.162;11.542;2022-07-29T06:35:35;59.45;;;23.70;;
8254;SDS011;4167;48.162;11.542;2022-07-29T06:38:03;148.73;;;29.90;;
8254;SDS011;4167;48.162;11.542;2022-07-29T06:40:30;83.18;;;25.27;;
8254;SDS011;4167;48.162;11.542;2022-07-29T06:43:14;121.38;;;28.45;;
8254;SDS011;4167;48.162;11.542;2022-07-29T06:45:41;69.65;;;24.45;;
8254;SDS011;4167;48.162;11.542;2022-07-29T06:48:10;117.70;;;28.40;;
8254;SDS011;4167;48.162;11.542;2022-07-29T06:50:36;92.75;;;26.48;;
8254;SDS011;4167;48.162;11.542;2022-07-29T06:53:03;84.95;;;26.65;;
8254;SDS011;4167;48.162;11.542;2022-07-29T06:55:30;82.68;;;25.85;;
8254;SDS011;4167;48.162;11.542;2022-07-29T06:57:56;96.32;;;27.50;;
8254;SDS011;4167;48.162;11.542;2022-07-29T07:00:23;129.75;;;29.30;;
8254;SDS011;4167;48.162;11.542;2022-07-29T07:02:50;66.95;;;24.80;;
8254;SDS011;4167;48.162;11.542;2022-07-29T07:05:17;54.38;;;24.23;;
8254;SDS011;4167;48.162;11.542;2022-07-29T07:07:44;93.82;;;27.35;;
8254;SDS011;4167;48.162;11.542;2022-07-29T07:10:11;56.83;;;24.10;;
8254;SDS011;4167;48.162;11.542;2022-07-29T07:12:37;173.35;;;33.03;;
8254;SDS011;4167;48.162;11.542;2022-07-29T07:15:04;65.53;;;24.48;;
8254;SDS011;4167;48.162;11.542;2022-07-29T07:17:32;125.53;;;29.13;;
8254;SDS011;4167;48.162;11.542;2022-07-29T07:19:58;86.38;;;26.65;;
8254;SDS011;4167;48.162;11.542;2022-07-29T07:22:26;96.90;;;26.48;;
8254;SDS011;4167;48.162;11.542;2022-07-29T07:24:53;63.10;;;24.00;;
8254;SDS011;4167;48.162;11.542;2022-07-29T07:27:19;98.72;;;27.25;;
8254;SDS011;4167;48.162;11.542;2022-07-29T07:29:45;72.13;;;24.98;;
8254;SDS011;4167;48.162;11.542;2022-07-29T07:32:12;80.90;;;25.98;;
8254;SDS011;4167;48.162;11.542;2022-07-29T07:34:41;61.78;;;24.30;;
8254;SDS011;4167;48.162;11.542;2022-07-29T07:37:07;103.20;;;27.48;;
8254;SDS011;4167;48.162;11.542;2022-07-29T07:39:35;63.40;;;23.92;;
8254;SDS011;4167;48.162;11.542;2022-07-29T07:42:02;54.58;;;23.73;;
8254;SDS011;4167;48.162;11.542;2022-07-29T07:44:29;63.00;;;24.40;;
8254;SDS011;4167;48.162;11.542;2022-07-29T07:46:55;93.30;;;26.25;;
8254;SDS011;4167;48.162;11.542;2022-07-29T07:49:22;63.90;;;24.33;;
8254;SDS011;4167;48.162;11.542;2022-07-29T07:51:48;72.70;;;24.80;;
8254;SDS011;4167;48.162;11.542;2022-07-29T07:54:15;92.10;;;25.88;;
8254;SDS011;4167;48.162;11.542;2022-07-29T07:56:42;83.97;;;25.27;;
8254;SDS011;4167;48.162;11.542;2022-07-29T07:59:09;59.15;;;23.50;;
8254;SDS011;4167;48.162;11.542;2022-07-29T08:01:35;93.90;;;26.02;;
8254;SDS011;4167;48.162;11.542;2022-07-29T08:04:02;79.97;;;25.25;;
8254;SDS011;4167;48.162;11.542;2022-07-29T08:06:29;85.18;;;25.30;;
8254;SDS011;4167;48.162;11.542;2022-07-29T08:08:55;88.28;;;25.42;;
8254;SDS011;4167;48.162;11.542;2022-07-29T08:11:22;88.30;;;25.90;;
8254;SDS011;4167;48.162;11.542;2022-07-29T08:13:50;104.25;;;27.15;;
8254;SDS011;4167;48.162;11.542;2022-07-29T08:16:17;109.50;;;27.80;;
8254;SDS011;4167;48.162;11.542;2022-07-29T08:18:44;94.65;;;27.17;;
8254;SDS011;4167;48.162;11.542;2022-07-29T08:21:11;125.60;;;28.90;;
8254;SDS011;4167;48.162;11.542;2022-07-29T08:23:37;102.85;;;27.30;;
8254;SDS011;4167;48.162;11.542;2022-07-29T08:26:04;75.15;;;25.58;;
8254;SDS011;4167;48.162;11.542;2022-07-29T08:28:35;99.40;;;27.40;;
8254;SDS011;4167;48.162;11.542;2022-07-29T08:31:03;71.93;;;25.40;;
8254;SDS011;4167;48.162;11.542;2022-07-29T08:33:29;60.85;;;24.38;;
8254;SDS011;4167;48.162;11.542;2022-07-29T08:35:56;93.60;;;27.02;;
8254;SDS011;4167;48.162;11.542;2022-07-29T08:38:22;97.60;;;27.08;;
8254;SDS011;4167;48.162;11.542;2022-07-29T08:40:51;106.90;;;28.50;;
8254;SDS011;4167;48.162;11.542;2022-07-29T08:43:18;91.38;;;28.40;;
8254;SDS011;4167;48.162;11.542;2022-07-29T08:45:46;87.28;;;27.58;;
8254;SDS011;4167;48.162;11.542;2022-07-29T08:48:15;112.68;;;29.48;;
8254;SDS011;4167;48.162;11.542;2022-07-29T08:50:44;72.32;;;27.85;;
8254;SDS011;4167;48.162;11.542;2022-07-29T08:53:11;186.77;;;34.75;;
8254;SDS011;4167;48.162;11.542;2022-07-29T08:55:39;125.00;;;29.73;;
8254;SDS011;4167;48.162;11.542;2022-07-29T08:58:06;107.55;;;28.65;;
8254;SDS011;4167;48.162;11.542;2022-07-29T09:00:32;88.43;;;27.50;;
8254;SDS011;4167;48.162;11.542;2022-07-29T09:03:00;112.35;;;29.30;;
8254;SDS011;4167;48.162;11.542;2022-07-29T09:05:29;85.32;;;28.05;;
8254;SDS011;4167;48.162;11.542;2022-07-29T09:07:56;90.47;;;28.35;;
8254;SDS011;4167;48.162;11.542;2022-07-29T09:10:22;119.13;;;30.13;;
8254;SDS011;4167;48.162;11.542;2022-07-29T09:12:48;138.27;;;30.38;;
8254;SDS011;4167;48.162;11.542;2022-07-29T09:15:15;95.00;;;28.40;;
8254;SDS011;4167;48.162;11.542;2022-07-29T09:17:43;149.75;;;32.15;;
8254;SDS011;4167;48.162;11.542;2022-07-29T09:20:11;84.30;;;27.73;;
8254;SDS011;4167;48.162;11.542;2022-07-29T09:22:40;118.13;;;30.08;;
8254;SDS011;4167;48.162;11.542;2022-07-29T09:25:07;89.18;;;29.05;;
8254;SDS011;4167;48.162;11.542;2022-07-29T09:27:33;141.95;;;31.27;;
8254;SDS011;4167;48.162;11.542;2022-07-29T09:30:02;70.95;;;26.90;;
8254;SDS011;4167;48.162;11.542;2022-07-29T09:32:30;67.78;;;26.95;;
8254;SDS011;4167;48.162;11.542;2022-07-29T09:35:17;108.47;;;30.48;;
8254;SDS011;4167;48.162;11.542;2022-07-29T09:37:46;77.05;;;28.33;;
8254;SDS011;4167;48.162;11.542;2022-07-29T09:40:14;72.88;;;28.33;;
8254;SDS011;4167;48.162;11.542;2022-07-29T09:42:41;113.05;;;30.80;;
8254;SDS011;4167;48.162;11.542;2022-07-29T09:45:08;89.18;;;29.13;;
8254;SDS011;4167;48.162;11.542;2022-07-29T09:47:42;125.70;;;31.42;;
8254;SDS011;4167;48.162;11.542;2022-07-29T09:50:11;128.40;;;31.70;;
8254;SDS011;4167;48.162;11.542;2022-07-29T09:52:44;80.35;;;28.50;;
8254;SDS011;4167;48.162;11.542;2022-07-29T09:55:13;87.07;;;29.42;;
8254;SDS011;4167;48.162;11.542;2022-07-29T09:57:40;78.75;;;27.65;;
8254;SDS011;4167;48.162;11.542;2022-07-29T10:00:07;103.63;;;29.63;;
8254;SDS011;4167;48.162;11.542;2022-07-29T10:02:35;149.07;;;31.85;;
8254;SDS011;4167;48.162;11.542;2022-07-29T10:05:04;106.22;;;29.30;;
8254;SDS011;4167;48.162;11.542;2022-07-29T10:07:45;83.10;;;28.45;;
8254;SDS011;4167;48.162;11.542;2022-07-29T10:10:18;85.38;;;28.60;;
8254;SDS011;4167;48.162;11.542;2022-07-29T10:12:49;84.97;;;28.42;;
8254;SDS011;4167;48.162;11.542;2022-07-29T10:15:16;114.03;;;31.27;;
8254;SDS011;4167;48.162;11.542;2022-07-29T10:17:44;130.80;;;31.23;;
8254;SDS011;4167;48.162;11.542;2022-07-29T10:20:11;102.25;;;29.13;;
8254;SDS011;4167;48.162;11.542;2022-07-29T10:22:38;92.63;;;29.05;;
8254;SDS011;4167;48.162;11.542;2022-07-29T10:25:06;113.53;;;29.85;;
8254;SDS011;4167;48.162;11.542;2022-07-29T10:27:34;101.22;;;29.52;;
8254;SDS011;4167;48.162;11.542;2022-07-29T10:30:00;90.68;;;28.08;;
8254;SDS011;4167;48.162;11.542;2022-07-29T10:32:32;129.98;;;32.17;;
8254;SDS011;4167;48.162;11.542;2022-07-29T10:35:21;95.45;;;29.80;;
8254;SDS011;4167;48.162;11.542;2022-07-29T10:38:10;168.95;;;35.13;;
8254;SDS011;4167;48.162;11.542;2022-07-29T10:40:51;92.20;;;28.23;;
8254;SDS011;4167;48.162;11.542;2022-07-29T10:43:41;98.93;;;30.23;;
8254;SDS011;4167;48.162;11.542;2022-07-29T10:46:08;61.03;;;27.23;;
8254;SDS011;4167;48.162;11.542;2022-07-29T10:48:43;67.70;;;26.98;;
8254;SDS011;4167;48.162;11.542;2022-07-29T10:54:35;136.43;;;32.35;;
8254;SDS011;4167;48.162;11.542;2022-07-29T10:57:10;110.43;;;31.00;;
8254;SDS011;4167;48.162;11.542;2022-07-29T10:59:38;65.28;;;27.05;;
8254;SDS011;4167;48.162;11.542;2022-07-29T11:02:14;107.78;;;30.58;;
8254;SDS011;4167;48.162;11.542;2022-07-29T11:05:09;134.43;;;32.13;;
8254;SDS011;4167;48.162;11.542;2022-07-29T11:07:37;139.23;;;32.13;;
8254;SDS011;4167;48.162;11.542;2022-07-29T11:10:20;107.80;;;30.08;;
8254;SDS011;4167;48.162;11.542;2022-07-29T11:12:49;102.18;;;29.33;;
8254;SDS011;4167;48.162;11.542;2022-07-29T11:15:16;89.28;;;29.92;;
8254;SDS011;4167;48.162;11.542;2022-07-29T11:18:08;94.25;;;29.65;;
8254;SDS011;4167;48.162;11.542;2022-07-29T11:20:39;206.63;;;36.38;;
8254;SDS011;4167;48.162;11.542;2022-07-29T11:23:25;116.32;;;30.80;;
8254;SDS011;4167;48.162;11.542;2022-07-29T11:26:13;137.15;;;32.00;;
8254;SDS011;4167;48.162;11.542;2022-07-29T11:28:50;118.13;;;31.13;;
8254;SDS011;4167;48.162;11.542;2022-07-29T11:31:31;95.97;;;29.40;;
8254;SDS011;4167;48.162;11.542;2022-07-29T11:42:41;124.85;;;31.67;;
8254;SDS011;4167;48.162;11.542;2022-07-29T11:45:09;71.75;;;27.90;;
8254;SDS011;4167;48.162;11.542;2022-07-29T11:47:38;112.63;;;30.15;;
8254;SDS011;4167;48.162;11.542;2022-07-29T11:50:08;118.72;;;30.67;;
8254;SDS011;4167;48.162;11.542;2022-07-29T11:52:36;80.80;;;27.40;;
8254;SDS011;4167;48.162;11.542;2022-07-29T11:55:10;122.55;;;29.67;;
8254;SDS011;4167;48.162;11.542;2022-07-29T11:57:45;150.73;;;30.98;;
8254;SDS011;4167;48.162;11.542;2022-07-29T12:00:12;145.85;;;30.75;;
8254;SDS011;4167;48.162;11.542;2022-07-29T12:02:47;145.02;;;30.75;;
8254;SDS011;4167;48.162;11.542;2022-07-29T12:05:15;139.00;;;31.17;;
8254;SDS011;4167;48.162;11.542;2022-07-29T12:07:42;166.50;;;32.42;;
8254;SDS011;4167;48.162;11.542;2022-07-29T12:10:08;103.68;;;28.80;;
8254;SDS011;4167;48.162;11.542;2022-07-29T12:12:35;115.90;;;28.75;;
8254;SDS011;4167;48.162;11.542;2022-07-29T12:15:10;147.07;;;30.83;;
8254;SDS011;4167;48.162;11.542;2022-07-29T12:17:42;119.13;;;29.20;;
8254;SDS011;4167;48.162;11.542;2022-07-29T12:20:09;114.65;;;29.65;;
8254;SDS011;4167;48.162;11.542;2022-07-29T12:22:39;124.63;;;29.80;;
8254;SDS011;4167;48.162;11.542;2022-07-29T12:25:09;126.90;;;30.88;;
8254;SDS011;4167;48.162;11.542;2022-07-29T12:27:39;111.78;;;28.95;;
8254;SDS011;4167;48.162;11.542;2022-07-29T12:30:07;186.52;;;34.05;;
8254;SDS011;4167;48.162;11.542;2022-07-29T12:32:35;108.15;;;28.90;;
8254;SDS011;4167;48.162;11.542;2022-07-29T12:35:03;169.88;;;32.35;;
8254;SDS011;4167;48.162;11.542;2022-07-29T12:37:31;134.55;;;30.20;;
8254;SDS011;4167;48.162;11.542;2022-07-29T12:40:00;114.63;;;29.05;;
8254;SDS011;4167;48.162;11.542;2022-07-29T12:42:27;141.85;;;31.08;;
8254;SDS011;4167;48.162;11.542;2022-07-29T12:44:53;121.30;;;29.63;;
8254;SDS011;4167;48.162;11.542;2022-07-29T12:47:20;141.43;;;30.52;;
8254;SDS011;4167;48.162;11.542;2022-07-29T12:49:46;132.05;;;29.80;;
8254;SDS011;4167;48.162;11.542;2022-07-29T12:52:24;176.73;;;33.08;;
8254;SDS011;4167;48.162;11.542;2022-07-29T12:54:54;149.73;;;31.45;;
8254;SDS011;4167;48.162;11.542;2022-07-29T12:57:22;165.80;;;31.85;;
8254;SDS011;4167;48.162;11.542;2022-07-29T12:59:59;127.13;;;29.92;;
8254;SDS011;4167;48.162;11.542;2022-07-29T13:02:26;135.40;;;30.52;;
8254;SDS011;4167;48.162;11.542;2022-07-29T13:04:56;163.95;;;32.20;;
8254;SDS011;4167;48.162;11.542;2022-07-29T13:07:24;214.18;;;35.15;;
8254;SDS011;4167;48.162;11.542;2022-07-29T13:09:52;125.47;;;29.65;;
8254;SDS011;4167;48.162;11.542;2022-07-29T13:12:18;124.47;;;29.75;;
8254;SDS011;4167;48.162;11.542;2022-07-29T13:14:47;69.82;;;26.58;;
8254;SDS011;4167;48.162;11.542;2022-07-29T13:17:15;93.38;;;27.60;;
8254;SDS011;4167;48.162;11.542;2022-07-29T13:19:43;149.70;;;31.38;;
8254;SDS011;4167;48.162;11.542;2022-07-29T13:22:11;118.28;;;28.90;;
8254;SDS011;4167;48.162;11.542;2022-07-29T13:24:45;101.97;;;28.27;;
8254;SDS011;4167;48.162;11.542;2022-07-29T13:27:13;143.38;;;30.50;;
8254;SDS011;4167;48.162;11.542;2022-07-29T13:29:39;143.90;;;30.58;;
8254;SDS011;4167;48.162;11.542;2022-07-29T13:32:07;123.13;;;29.60;;
8254;SDS011;4167;48.162;11.542;2022-07-29T13:34:34;155.68;;;31.45;;
8254;SDS011;4167;48.162;11.542;2022-07-29T13:37:01;109.45;;;29.58;;
8254;SDS011;4167;48.162;11.542;2022-07-29T13:39:28;118.55;;;29.13;;
8254;SDS011;4167;48.162;11.542;2022-07-29T13:41:55;131.55;;;30.13;;
8254;SDS011;4167;48.162;11.542;2022-07-29T13:44:21;156.20;;;31.10;;
8254;SDS011;4167;48.162;11.542;2022-07-29T13:46:48;159.68;;;31.50;;
8254;SDS011;4167;48.162;11.542;2022-07-29T13:49:16;90.90;;;27.98;;
8254;SDS011;4167;48.162;11.542;2022-07-29T13:51:42;168.52;;;32.15;;
8254;SDS011;4167;48.162;11.542;2022-07-29T13:54:09;164.98;;;31.73;;
8254;SDS011;4167;48.162;11.542;2022-07-29T13:56:35;141.57;;;30.63;;
8254;SDS011;4167;48.162;11.542;2022-07-29T13:59:02;119.97;;;29.73;;
8254;SDS011;4167;48.162;11.542;2022-07-29T14:01:28;154.20;;;31.05;;
8254;SDS011;4167;48.162;11.542;2022-07-29T14:03:55;110.25;;;29.00;;
8254;SDS011;4167;48.162;11.542;2022-07-29T14:06:23;105.00;;;28.52;;
8254;SDS011;4167;48.162;11.542;2022-07-29T14:08:50;115.10;;;29.23;;
8254;SDS011;4167;48.162;11.542;2022-07-29T14:11:16;96.20;;;28.10;;
8254;SDS011;4167;48.162;11.542;2022-07-29T14:13:44;225.95;;;35.90;;
8254;SDS011;4167;48.162;11.542;2022-07-29T14:16:10;126.50;;;29.88;;
8254;SDS011;4167;48.162;11.542;2022-07-29T14:18:37;148.43;;;31.20;;
8254;SDS011;4167;48.162;11.542;2022-07-29T14:21:03;155.45;;;31.05;;
8254;SDS011;4167;48.162;11.542;2022-07-29T14:23:31;139.82;;;30.48;;
8254;SDS011;4167;48.162;11.542;2022-07-29T14:25:58;147.90;;;30.52;;
8254;SDS011;4167;48.162;11.542;2022-07-29T14:28:24;118.95;;;29.65;;
8254;SDS011;4167;48.162;11.542;2022-07-29T14:30:51;116.10;;;29.17;;
8254;SDS011;4167;48.162;11.542;2022-07-29T14:33:18;193.05;;;33.60;;
8254;SDS011;4167;48.162;11.542;2022-07-29T14:35:44;99.53;;;28.35;;
8254;SDS011;4167;48.162;11.542;2022-07-29T14:38:11;152.70;;;31.30;;
8254;SDS011;4167;48.162;11.542;2022-07-29T14:40:39;149.40;;;31.23;;
8254;SDS011;4167;48.162;11.542;2022-07-29T14:43:05;109.90;;;29.33;;
8254;SDS011;4167;48.162;11.542;2022-07-29T14:45:32;148.40;;;30.92;;
8254;SDS011;4167;48.162;11.542;2022-07-29T14:47:58;95.90;;;28.10;;